Main page
METAR-TAF:

METAR-TAF

Airports :

Santa Maria Airport

Santa Maria, Rio Grande do Sul, Brazil

latitude: 29-43S, longitude: 053-42W, elevation: 85 m

Current weather observation

The report was made 1 hour and 14 minutes ago, at 22:00 UTC
Wind 9 kt from the East/Southeast
Temperature 19°C
Humidity 78%
Pressure 1014 hPa
Visibility 10 km or more
no clouds below 1500 m and no cumulonimbus

METAR: SBSM 202200Z 11009KT CAVOK 19/15 Q1014

Time: 20:14 (23:14 UTC)

Forecast

The report was made 7 hours and 44 minutes ago, at 15:30 UTC
Forecast valid from 20 at 18 UTC to 21 at 06 UTC
Wind 10 kt from the East
Visibility 10 km or more
Scattered clouds at a height of 3000 ft
Becoming
from 21 at 02 UTC to 21 at 04 UTC
Wind 5 kt from the East
Visibility: 8000 m
Overcast at a height of 600 ft

TAF: SBSM 201530Z 2018/2106 10010KT 9999 SCT030 TX23/2018Z TN16/2106Z BECMG 2102/2104 10005KT 8000 OVC006 RMK PDW

Weather observations and forecasts of more than 4000 airports (METAR and TAF reports).

The available stations are represented by yellow and red dots on the map.

Hover mouse over dot to see the name of the station.

Then click to see weather observations and forecasts.

To change the map : click on the green buttons with a black cross to zoom in, on the green button with a dash to zoom out, or on the green arrows for adjacent maps.


METAR-TAF: